Latest Weather Observations for Casterton

IDV60801

Issued at 1:03 pm EDT Monday 27 February 2017 (issued every 30 minutes, with the page automatically refreshed every 10 minutes)

About weather observations | Map of weather stations | Latest weather observations for VIC | Other Formats
Station Details ID: 090182 Name: CASTERTON Lat: -37.58 Lon: 141.33 Height: 130.6 m
Data from the previous 72 hours. | See also: Recent months at Casterton
Date/Time
EDT
Temp
°C
App
Temp
°C
Dew
Point
°C
Rel
Hum
%
Delta-T
°C
Wind Press
QNH
hPa
Press
MSL
hPa
Rain since
9am
mm
Dir  Spd
km/h
Gust
km/h
Spd
kts
Gust
kts
27/01:00pm 31.1 27.1 10.4 28 11.9 N 22 35 12 19 1019.9 1019.5 0.0
27/12:30pm 30.9 27.6 10.8 29 11.6 NNE 19 32 10 17 1020.1 1019.7 0.0
27/12:00pm 30.3 27.3 11.8 32 10.8 N 19 28 10 15 1020.4 1020.0 0.0
27/11:30am 29.3 26.1 11.4 33 10.4 N 19 28 10 15 1020.5 1020.1 0.0
27/11:00am 28.5 25.1 11.1 34 10.0 N 20 32 11 17 1020.7 1020.3 0.0
27/10:30am 27.9 25.5 11.5 36 9.5 NNE 15 24 8 13 1020.7 1020.3 0.0
27/10:00am 25.2 23.3 13.1 47 7.1 NE 15 20 8 11 1020.7 1020.3 0.0
27/09:30am 22.9 21.7 13.9 57 5.3 NE 13 17 7 9 1020.7 1020.3 0.0
27/09:00am 19.4 19.0 14.0 71 3.1 NE 9 13 5 7 1020.6 1020.2 0.0
27/08:30am 16.4 16.4 14.2 87 1.3 NE 7 9 4 5 1020.4 1020.0 0.0
27/08:00am 14.4 13.8 13.6 95 0.4 NE 9 11 5 6 1020.2 1019.8 0.0
27/07:30am 13.0 12.4 12.4 96 0.3 ENE 7 9 4 5 1020.0 1019.6 0.0
27/07:00am 13.0 12.5 12.2 95 0.4 ENE 6 9 3 5 1019.7 1019.4 0.0
27/06:30am 13.2 12.6 12.3 94 0.5 ENE 7 9 4 5 1019.5 1019.2 0.0
27/06:00am 13.8 13.3 12.7 93 0.6 ENE 7 9 4 5 1019.3 1018.9 0.0
27/05:30am 14.4 14.0 13.0 91 0.8 ENE 7 11 4 6 1019.1 1018.7 0.0
27/05:00am 14.9 14.5 13.1 89 1.0 E 7 9 4 5 1018.9 1018.5 0.0
27/04:30am 15.0 14.3 13.2 89 1.0 E 9 13 5 7 1018.9 1018.5 0.0
27/04:00am 15.1 14.9 13.5 90 0.9 E 7 9 4 5 1019.0 1018.6 0.0
27/03:30am 15.1 14.9 13.5 90 0.9 E 7 9 4 5 1019.1 1018.7 0.0
27/03:00am 14.9 14.8 13.4 91 0.8 ENE 6 7 3 4 1019.2 1018.8 0.0
27/02:30am 14.7 14.3 13.1 90 0.9 ENE 7 9 4 5 1019.3 1018.9 0.0
27/02:00am 14.2 13.9 12.8 91 0.8 ENE 6 7 3 4 1019.4 1019.0 0.0
27/01:30am 14.2 14.9 12.1 87 1.1 CALM 0 0 0 0 1019.5 1019.2 0.0
27/01:00am 15.6 16.6 13.1 85 1.4 CALM 0 0 0 0 1019.4 1019.0 0.0
27/12:30am 15.9 15.4 12.8 82 1.7 E 7 9 4 5 1019.5 1019.2 0.0
27/12:00am 16.9 16.8 13.2 79 2.1 SE 6 11 3 6 1019.6 1019.3 0.0
 
Date/Time
EDT
Temp
°C
App
Temp
°C
Dew
Point
°C
Rel
Hum
%
Delta-T
°C
Wind Press
QNH
hPa
Press
MSL
hPa
Rain since
9am
mm
Dir  Spd
km/h
Gust
km/h
Spd
kts
Gust
kts
26/11:30pm 17.3 16.7 13.4 78 2.2 ESE 9 15 5 8 1019.9 1019.5 0.0
26/11:00pm 17.7 17.1 13.4 76 2.4 ESE 9 15 5 8 1020.0 1019.6 0.0
26/10:30pm 18.3 17.4 13.6 74 2.7 ESE 11 15 6 8 1020.0 1019.6 0.0
26/10:00pm 18.6 17.7 13.7 73 2.8 SE 11 15 6 8 1020.0 1019.6 0.0
26/09:30pm 19.7 18.5 14.1 70 3.3 SSE 13 17 7 9 1019.4 1019.0 0.0
26/09:00pm 20.1 19.3 14.0 68 3.5 S 11 15 6 8 1019.1 1018.7 0.0
26/08:30pm 22.5 21.3 14.1 59 4.9 SE 13 20 7 11 1018.5 1018.1 0.0
26/08:00pm 24.7 23.2 14.2 52 6.2 SSE 15 26 8 14 1018.1 1017.7 0.0
26/07:30pm 27.2 26.7 12.0 38 8.8 SW 6 20 3 11 1017.7 1017.3 0.0
26/07:00pm 29.3 28.3 7.2 25 11.9 ENE 2 7 1 4 1017.5 1017.1 0.0
26/06:30pm 29.3 27.3 7.2 25 12.0 SSW 7 11 4 6 1017.4 1017.0 0.0
26/06:00pm 29.5 27.6 7.4 25 12.0 N 7 13 4 7 1017.2 1016.8 0.0
26/05:30pm 29.6 28.0 8.1 26 11.8 NNE 6 11 3 6 1017.1 1016.7 0.0
26/05:00pm 29.3 26.9 7.2 25 11.9 N 9 17 5 9 1017.3 1016.9 0.0
26/04:30pm 29.5 27.7 8.0 26 11.8 E 7 15 4 8 1017.5 1017.1 0.0
26/04:00pm 28.9 27.4 8.6 28 11.2 NW 6 11 3 6 1017.7 1017.3 0.0
26/03:30pm 28.0 26.0 8.8 30 10.6 NE 9 17 5 9 1018.0 1017.6 0.0
26/03:00pm 27.1 25.2 9.0 32 10.0 NNW 9 13 5 7 1018.3 1017.9 0.0
26/02:30pm 26.5 24.1 10.2 36 9.1 NE 13 19 7 10 1018.7 1018.3 0.0
26/02:00pm 25.7 24.1 10.3 38 8.6 ESE 9 19 5 10 1019.1 1018.7 0.0
26/01:30pm 24.6 23.2 10.8 42 7.7 ENE 9 20 5 11 1019.4 1019.0 0.0
26/01:00pm 24.9 24.0 12.5 46 7.2 E 9 20 5 11 1019.7 1019.4 0.0
26/12:30pm 23.5 22.4 11.9 48 6.6 ENE 9 19 5 10 1020.2 1019.8 0.0
26/12:00pm 22.7 20.8 11.7 49 6.2 E 13 26 7 14 1020.5 1020.1 0.0
26/11:30am 21.6 20.2 12.2 55 5.3 ESE 11 22 6 12 1020.7 1020.3 0.0
26/11:00am 20.8 17.8 12.0 57 4.9 ESE 19 24 10 13 1020.8 1020.4 0.0
26/10:30am 19.7 16.9 12.5 63 4.1 ESE 19 26 10 14 1020.8 1020.4 0.0
26/10:00am 18.3 14.5 12.3 68 3.3 ESE 24 33 13 18 1020.9 1020.5 0.0
26/09:30am 17.6 14.7 12.3 71 2.9 ESE 19 28 10 15 1020.8 1020.4 0.0
26/09:00am 16.1 13.2 12.3 78 2.1 ESE 19 28 10 15 1020.7 1020.3 0.0
26/08:30am 14.5 12.4 12.4 87 1.2 ESE 15 22 8 12 1020.9 1020.5 0.0
26/08:00am 13.7 11.4 11.9 89 1.0 E 15 24 8 13 1021.1 1020.7 0.0
26/07:30am 13.2 11.1 12.4 95 0.4 SE 15 20 8 11 1020.9 1020.5 0.0
26/07:00am 11.7 10.0 11.1 96 0.3 SSE 11 15 6 8 1020.7 1020.3 0.0
26/06:30am 11.1 9.9 10.2 94 0.5 S 7 9 4 5 1020.7 1020.3 0.0
26/06:00am 11.9 10.5 10.8 93 0.6 SSE 9 11 5 6 1020.6 1020.2 0.0
26/05:30am 11.2 9.7 10.4 95 0.4 SSE 9 11 5 6 1020.6 1020.2 0.0
26/05:00am 10.9 8.8 9.8 93 0.6 SSE 11 13 6 7 1020.5 1020.1 0.0
26/04:30am 11.1 9.6 10.6 97 0.3 ESE 9 13 5 7 1020.8 1020.4 0.0
26/04:00am 10.1 8.3 9.3 95 0.4 SE 9 13 5 7 1021.0 1020.6 0.0
26/03:30am 10.3 8.5 9.5 95 0.4 SE 9 13 5 7 1021.1 1020.7 0.0
26/03:00am 10.9 9.6 10.1 95 0.4 SSE 7 11 4 6 1021.3 1020.9 0.0
26/02:30am 10.5 8.7 9.6 94 0.5 S 9 13 5 7 1021.6 1021.2 0.0
26/02:00am 10.6 8.4 9.4 92 0.6 S 11 13 6 7 1022.0 1021.6 0.0
26/01:30am 11.2 9.2 10.1 93 0.6 S 11 15 6 8 1022.5 1022.1 0.0
26/01:00am 10.9 9.5 9.0 88 0.9 SSE 6 7 3 4 1022.6 1022.2 0.0
26/12:30am 11.7 10.2 9.1 84 1.3 SSE 7 11 4 6 1022.9 1022.5 0.0
26/12:00am 12.3 9.3 9.1 81 1.6 S 15 20 8 11 1023.2 1022.8 0.0
 
Date/Time
EDT
Temp
°C
App
Temp
°C
Dew
Point
°C
Rel
Hum
%
Delta-T
°C
Wind Press
QNH
hPa
Press
MSL
hPa
Rain since
9am
mm
Dir  Spd
km/h
Gust
km/h
Spd
kts
Gust
kts
25/11:30pm 13.5 9.7 9.0 74 2.3 S 19 24 10 13 1023.5 1023.1 0.0
25/11:00pm 13.9 10.3 8.5 70 2.7 SSE 17 24 9 13 1023.6 1023.2 0.0
25/10:30pm 14.1 10.4 8.1 67 3.0 SE 17 28 9 15 1023.7 1023.3 0.0
25/10:00pm 13.9 10.1 7.7 66 3.1 SSE 17 24 9 13 1024.0 1023.6 0.0
25/09:30pm 13.7 9.8 7.2 65 3.2 SSE 17 22 9 12 1024.0 1023.6 0.0
25/09:00pm 13.7 9.8 7.2 65 3.2 SSE 17 24 9 13 1024.0 1023.6 0.0
25/08:30pm 13.5 9.6 7.1 65 3.1 SSE 17 26 9 14 1023.8 1023.4 0.0
25/08:00pm 14.6 9.7 6.9 60 3.8 SSE 22 32 12 17 1023.5 1023.1 0.0
25/07:30pm 15.3 10.8 6.3 55 4.4 SSE 19 28 10 15 1023.5 1023.1 0.0
25/07:00pm 16.7 11.7 6.5 51 5.0 SSE 22 32 12 17 1023.2 1022.8 0.0
25/06:30pm 17.4 12.3 6.0 47 5.6 SE 22 28 12 15 1023.0 1022.6 0.0
25/06:00pm 17.8 12.3 5.7 45 5.9 SSE 24 33 13 18 1022.9 1022.5 0.0
25/05:30pm 18.3 13.7 6.5 46 5.9 SSE 20 32 11 17 1023.2 1022.8 0.0
25/05:00pm 18.5 13.0 5.7 43 6.3 SE 24 32 13 17 1023.5 1023.1 0.0
25/04:30pm 19.4 14.1 6.8 44 6.4 SSE 24 35 13 19 1023.4 1023.0 0.0
25/04:00pm 19.4 13.9 5.8 41 6.7 SSE 24 35 13 19 1023.6 1023.2 0.0
25/03:30pm 19.7 14.9 7.4 45 6.3 SE 22 30 12 16 1023.7 1023.3 0.0
25/03:00pm 19.5 14.5 6.3 42 6.6 SE 22 32 12 17 1023.9 1023.5 0.0
25/02:30pm 19.9 15.9 6.6 42 6.7 SE 17 26 9 14 1024.4 1024.0 0.0
25/02:00pm 19.6 15.2 7.4 45 6.2 SSE 20 32 11 17 1024.5 1024.1 0.0
25/01:30pm 19.0 14.5 6.8 45 6.2 SE 20 32 11 17 1024.7 1024.3 0.0
25/01:00pm 18.3 13.6 6.2 45 6.0 SE 20 30 11 16 1025.0 1024.6 0.0
25/12:30pm 18.1 13.1 6.6 47 5.7 SE 22 33 12 18 1025.2 1024.8 0.0
25/12:00pm 17.7 12.5 7.2 50 5.3 SSE 24 37 13 20 1025.7 1025.3 0.0
25/11:30am 17.5 12.2 7.0 50 5.3 SE 24 39 13 21 1025.8 1025.4 0.0
25/11:00am 16.8 11.8 6.6 51 5.0 SE 22 32 12 17 1025.7 1025.3 0.0
25/10:30am 15.6 10.4 7.1 57 4.2 SSE 24 35 13 19 1025.9 1025.5 0.0
25/10:00am 14.9 10.7 8.4 65 3.3 SSE 20 32 11 17 1025.5 1025.1 0.0
25/09:30am 15.0 11.4 10.0 72 2.6 SSE 19 30 10 16 1026.1 1025.8 0.0
25/09:00am 14.3 10.5 9.7 74 2.4 S 20 28 11 15 1026.1 1025.8 0.0
25/08:30am 13.0 10.5 9.6 80 1.7 SSE 13 20 7 11 1025.7 1025.3 0.0
25/08:00am 13.5 10.6 9.7 78 2.0 SSE 15 22 8 12 1025.6 1025.2 0.0
25/07:30am 12.8 10.5 10.3 85 1.3 SSE 13 15 7 8 1025.4 1025.0 0.0
25/07:00am 12.5 10.1 9.9 84 1.3 SE 13 20 7 11 1025.1 1024.7 0.0
25/06:30am 12.8 11.0 10.7 87 1.1 SSE 11 15 6 8 1025.0 1024.6 0.0
25/06:00am 12.6 10.1 11.0 90 0.8 S 15 20 8 11 1025.2 1024.8 0.0
25/05:30am 12.3 10.1 10.9 91 0.7 S 13 17 7 9 1025.0 1024.6 0.0
25/05:00am 12.3 9.8 10.9 91 0.7 S 15 19 8 10 1025.0 1024.6 0.0
25/04:30am 12.1 9.9 10.8 92 0.7 S 13 17 7 9 1024.8 1024.4 0.0
25/04:00am 10.8 9.1 10.0 95 0.4 S 9 11 5 6 1024.9 1024.5 0.0
25/03:30am 10.5 8.3 9.4 93 0.6 SSW 11 19 6 10 1025.2 1024.8 0.0
25/03:00am 11.4 9.7 9.8 90 0.8 SE 9 13 5 7 1025.3 1024.9 0.0
25/02:30am 11.9 10.2 10.0 88 1.0 SE 9 11 5 6 1025.6 1025.2 0.0
25/02:00am 12.6 10.2 10.0 84 1.3 SE 13 20 7 11 1025.8 1025.4 0.0
25/01:30am 13.0 11.0 10.2 83 1.5 SE 11 17 6 9 1026.1 1025.8 0.0
25/01:00am 12.7 10.6 9.9 83 1.4 S 11 13 6 7 1026.3 1026.0 0.0
25/12:30am 12.6 10.9 9.8 83 1.4 SSW 9 15 5 8 1026.3 1026.0 0.0
25/12:00am 12.2 11.1 9.8 85 1.2 S 6 7 3 4 1026.4 1026.1 0.0
 
Date/Time
EDT
Temp
°C
App
Temp
°C
Dew
Point
°C
Rel
Hum
%
Delta-T
°C
Wind Press
QNH
hPa
Press
MSL
hPa
Rain since
9am
mm
Dir  Spd
km/h
Gust
km/h
Spd
kts
Gust
kts
24/11:30pm 11.5 9.6 9.1 85 1.2 S 9 11 5 6 1026.5 1026.2 0.0
24/11:00pm 11.2 9.1 8.4 83 1.4 SSE 9 11 5 6 1026.5 1026.2 0.0
24/10:30pm 11.5 9.4 8.2 80 1.6 SSE 9 11 5 6 1026.6 1026.3 0.0
24/10:00pm 12.5 10.4 8.4 76 2.0 SSE 9 15 5 8 1026.6 1026.3 0.0
24/09:30pm 13.2 11.1 8.3 72 2.5 SSE 9 15 5 8 1026.4 1026.1 0.0
24/09:00pm 14.5 11.2 8.2 66 3.2 SSE 15 22 8 12 1026.2 1025.9 0.0
24/08:30pm 15.9 12.5 9.1 64 3.5 SSE 17 20 9 11 1026.0 1025.6 0.0
24/08:00pm 16.3 13.0 9.5 64 3.5 SSE 17 30 9 16 1025.7 1025.3 0.0
24/07:30pm 16.5 13.1 9.0 61 3.9 S 17 20 9 11 1025.5 1025.1 0.0
24/07:00pm 17.2 13.5 8.1 55 4.6 SSE 17 26 9 14 1025.4 1025.0 0.0
24/06:30pm 17.9 13.6 7.9 52 5.1 SSE 20 30 11 16 1025.4 1025.0 0.0
24/06:00pm 18.2 13.2 8.2 52 5.1 SE 24 33 13 18 1025.3 1024.9 0.0
24/05:30pm 18.6 13.8 8.8 53 5.1 S 24 32 13 17 1025.1 1024.7 0.0
24/05:00pm 19.4 15.4 8.4 49 5.7 S 19 28 10 15 1025.1 1024.7 0.0
24/04:30pm 18.7 14.7 8.9 53 5.1 SSE 20 28 11 15 1025.3 1024.9 0.0
24/04:00pm 18.8 14.4 9.0 53 5.1 S 22 32 12 17 1025.4 1025.0 0.0
24/03:30pm 18.7 14.7 8.9 53 5.1 S 20 32 11 17 1025.6 1025.2 0.0
24/03:00pm 19.1 15.4 9.3 53 5.2 S 19 28 10 15 1025.7 1025.3 0.0
24/02:30pm 19.5 14.6 8.5 49 5.8 S 24 33 13 18 1025.7 1025.3 0.0
24/02:00pm 19.9 15.9 9.2 50 5.7 SW 20 33 11 18 1025.9 1025.5 0.0
24/01:30pm 19.5 15.7 9.1 51 5.5 SW 19 32 10 17 1026.0 1025.6 0.0

Other Formats:

Comma delimited format used in spreadsheet applications
http://www.bom.gov.au/fwo/IDV60801/IDV60801.95825.axf

JavaScript Object Notation format (JSON) in row-major order
http://www.bom.gov.au/fwo/IDV60801/IDV60801.95825.json